Terminal Aerodrome Forecast
Issued by NWS

Home | Current Version | Previous Version | Text Only | Print | Product List | Glossary On
Versions: 1 2 3 4 5 6 7 8 9 10 11 12 13 14 15 16 17 18 19 20
373
FTUS41 KGYX 272320
TAFPSM
TAF
KPSM 272320Z 2800/2824 11004KT P6SM FEW030 SCT250
     FM280400 04006KT 5SM BR OVC025
     FM281200 05010KT 5SM BR OVC010
     FM281500 05012KT P6SM BKN025=

USA.gov is the U.S. government's official web portal to all federal, state and local government web resources and services.